createdAt,value
2023-10-14T00:00:05.602Z,0
2023-10-14T00:01:45.376Z,0
2023-10-14T00:03:25.134Z,0
2023-10-14T00:05:04.900Z,0
2023-10-14T00:06:44.673Z,0
2023-10-14T00:08:24.431Z,0
2023-10-14T00:10:04.182Z,0
2023-10-14T00:11:43.957Z,0
2023-10-14T00:13:23.717Z,0
2023-10-14T00:15:03.492Z,0
2023-10-14T00:16:43.246Z,0
2023-10-14T00:18:23.023Z,0
2023-10-14T00:20:02.779Z,0
2023-10-14T00:21:42.571Z,0
2023-10-14T00:23:22.303Z,0
2023-10-14T00:25:02.064Z,0
2023-10-14T00:26:41.845Z,0
2023-10-14T00:28:21.588Z,0
2023-10-14T00:30:01.454Z,0
2023-10-14T00:31:41.114Z,0
2023-10-14T00:35:00.651Z,0
2023-10-14T00:36:40.417Z,0
2023-10-14T00:38:20.174Z,0
2023-10-14T00:39:59.949Z,0
2023-10-14T00:41:39.708Z,0
2023-10-14T00:43:19.490Z,0
2023-10-14T00:44:59.230Z,0
2023-10-14T00:46:38.993Z,0
2023-10-14T00:48:18.771Z,0
2023-10-14T00:49:58.531Z,0
2023-10-14T00:51:38.330Z,0
2023-10-14T00:53:18.055Z,0
2023-10-14T00:54:57.823Z,0
2023-10-14T00:56:37.897Z,0
2023-10-14T00:58:17.350Z,0
2023-10-14T00:59:57.157Z,0
2023-10-14T01:01:36.879Z,0
2023-10-14T01:03:16.645Z,0
2023-10-14T01:04:56.409Z,0
2023-10-14T01:06:36.193Z,0
2023-10-14T01:08:15.938Z,0
2023-10-14T01:09:55.689Z,0
2023-10-14T01:11:35.451Z,0
2023-10-14T01:13:15.233Z,0
2023-10-14T01:14:55.000Z,0
2023-10-14T01:16:34.769Z,0
2023-10-14T01:18:14.509Z,0
2023-10-14T01:19:54.281Z,0
2023-10-14T01:21:34.065Z,0
2023-10-14T01:23:13.842Z,0
2023-10-14T01:24:53.576Z,0
2023-10-14T01:26:33.331Z,0
2023-10-14T01:28:13.207Z,0
2023-10-14T01:29:52.873Z,0
2023-10-14T01:31:32.619Z,0
2023-10-14T01:33:12.398Z,0
2023-10-14T01:34:52.187Z,0
2023-10-14T01:36:32.028Z,0
2023-10-14T01:38:11.676Z,0
2023-10-14T01:39:51.452Z,0
2023-10-14T01:41:31.232Z,0
2023-10-14T01:43:11.009Z,0
2023-10-14T01:44:50.742Z,0
2023-10-14T01:46:30.580Z,0
2023-10-14T01:48:10.273Z,0
2023-10-14T01:49:50.032Z,0
2023-10-14T01:51:29.811Z,0
2023-10-14T01:53:09.580Z,0
2023-10-14T01:54:49.341Z,0
2023-10-14T01:56:29.078Z,0
2023-10-14T01:58:08.844Z,0
2023-10-14T01:59:48.633Z,0
2023-10-14T02:01:28.401Z,0
2023-10-14T02:03:08.154Z,0
2023-10-14T02:04:47.914Z,0
2023-10-14T02:06:27.675Z,0
2023-10-14T02:08:07.449Z,0
2023-10-14T02:09:47.267Z,0
2023-10-14T02:11:27.031Z,0
2023-10-14T02:13:06.722Z,0
2023-10-14T02:14:46.540Z,0
2023-10-14T02:16:26.261Z,0
2023-10-14T02:18:06.036Z,0
2023-10-14T02:19:45.797Z,0
2023-10-14T02:21:25.558Z,0
2023-10-14T02:23:05.350Z,0
2023-10-14T02:24:45.085Z,0
2023-10-14T02:26:24.835Z,0
2023-10-14T02:28:04.617Z,0
2023-10-14T02:29:44.372Z,0
2023-10-14T02:31:24.136Z,0
2023-10-14T02:33:03.897Z,0
2023-10-14T02:34:43.655Z,0
2023-10-14T02:36:23.458Z,0
2023-10-14T02:38:03.220Z,0
2023-10-14T02:39:42.957Z,0
2023-10-14T02:41:22.727Z,0
2023-10-14T02:43:02.528Z,0
2023-10-14T02:44:42.241Z,0
2023-10-14T02:46:22.009Z,0
2023-10-14T02:48:01.777Z,0
2023-10-14T02:49:41.538Z,0
2023-10-14T02:51:21.321Z,0
2023-10-14T02:53:01.090Z,0
2023-10-14T02:54:40.830Z,0
2023-10-14T02:56:20.592Z,0
2023-10-14T02:58:00.425Z,0
2023-10-14T02:59:40.133Z,0
2023-10-14T03:01:19.885Z,0
2023-10-14T03:02:59.672Z,0
2023-10-14T03:04:39.424Z,0
2023-10-14T03:06:19.253Z,0
2023-10-14T03:07:59.101Z,0
2023-10-14T03:09:38.721Z,0
2023-10-14T03:11:18.455Z,0
2023-10-14T03:12:58.236Z,0
2023-10-14T03:14:38.008Z,0
2023-10-14T03:16:17.759Z,0
2023-10-14T03:17:57.541Z,0
2023-10-14T03:19:37.386Z,0
2023-10-14T03:21:17.046Z,0
2023-10-14T03:22:56.823Z,0
2023-10-14T03:24:36.570Z,0
2023-10-14T03:26:16.335Z,0
2023-10-14T03:27:56.111Z,0
2023-10-14T03:29:35.872Z,0
2023-10-14T03:31:15.647Z,0
2023-10-14T03:32:55.396Z,0
2023-10-14T03:34:35.154Z,0
2023-10-14T03:36:14.927Z,0
2023-10-14T03:37:54.689Z,0
2023-10-14T03:39:34.450Z,0
2023-10-14T03:41:14.214Z,0
2023-10-14T03:44:33.748Z,0
2023-10-14T03:46:13.513Z,0
2023-10-14T03:47:53.285Z,0
2023-10-14T03:49:33.107Z,0
2023-10-14T03:51:12.808Z,0
2023-10-14T03:52:52.574Z,0
2023-10-14T03:54:32.363Z,0
2023-10-14T03:56:12.091Z,0
2023-10-14T03:57:51.872Z,0
2023-10-14T03:59:31.682Z,0
2023-10-14T04:01:11.395Z,0
2023-10-14T04:02:51.145Z,0
2023-10-14T04:04:30.932Z,0
2023-10-14T04:06:10.750Z,0
2023-10-14T04:07:50.437Z,0
2023-10-14T04:09:30.292Z,0
2023-10-14T04:11:09.984Z,0
2023-10-14T04:12:49.765Z,0
2023-10-14T04:14:29.545Z,0
2023-10-14T04:16:09.265Z,0
2023-10-14T04:17:49.022Z,0
2023-10-14T04:19:28.818Z,0
2023-10-14T04:21:08.568Z,0
2023-10-14T04:22:48.342Z,0
2023-10-14T04:24:28.081Z,0
2023-10-14T04:26:07.849Z,0
2023-10-14T04:27:47.612Z,0
2023-10-14T04:29:27.389Z,0
2023-10-14T04:31:07.139Z,0
2023-10-14T04:32:46.901Z,0
2023-10-14T04:34:26.669Z,0
2023-10-14T04:36:06.433Z,0
2023-10-14T04:37:46.194Z,0
2023-10-14T04:39:25.969Z,0
2023-10-14T04:41:05.760Z,0
2023-10-14T04:44:25.251Z,0
2023-10-14T04:46:05.086Z,0
2023-10-14T04:47:44.782Z,0
2023-10-14T04:49:24.559Z,0
2023-10-14T04:51:04.301Z,0
2023-10-14T04:52:44.098Z,0
2023-10-14T04:54:23.847Z,0
2023-10-14T04:56:03.592Z,0
2023-10-14T04:57:43.373Z,0
2023-10-14T04:59:23.141Z,0
2023-10-14T05:01:02.909Z,0
2023-10-14T05:02:42.671Z,0
2023-10-14T05:04:22.426Z,0
2023-10-14T05:06:02.181Z,0
2023-10-14T05:07:41.969Z,0
2023-10-14T05:09:21.720Z,0
2023-10-14T05:11:01.476Z,0
2023-10-14T05:12:41.240Z,0
2023-10-14T05:14:21.094Z,0
2023-10-14T05:16:00.765Z,0
2023-10-14T05:17:40.544Z,0
2023-10-14T05:19:20.298Z,0
2023-10-14T05:21:00.053Z,0
2023-10-14T05:24:19.653Z,0
2023-10-14T05:25:59.345Z,0
2023-10-14T05:27:39.131Z,0
2023-10-14T05:29:18.901Z,0
2023-10-14T05:30:58.648Z,0
2023-10-14T05:32:38.463Z,0
2023-10-14T05:34:18.173Z,0
2023-10-14T05:35:57.930Z,0
2023-10-14T05:37:37.830Z,0
2023-10-14T05:39:17.523Z,0
2023-10-14T05:40:57.244Z,0
2023-10-14T05:42:37.020Z,0
2023-10-14T05:44:16.765Z,0
2023-10-14T05:45:56.586Z,0
2023-10-14T05:47:36.292Z,0.38
2023-10-14T05:49:16.048Z,0.25
2023-10-14T05:50:55.834Z,0
2023-10-14T05:52:35.583Z,0
2023-10-14T05:54:15.340Z,0
2023-10-14T05:55:55.228Z,0
2023-10-14T05:57:34.862Z,0
2023-10-14T05:59:14.656Z,0
2023-10-14T06:00:54.422Z,0
2023-10-14T06:04:13.928Z,0
2023-10-14T06:05:53.696Z,0
2023-10-14T06:07:33.529Z,0
2023-10-14T06:09:13.281Z,0
2023-10-14T06:10:52.987Z,0
2023-10-14T06:12:32.837Z,0
2023-10-14T06:14:12.507Z,0
2023-10-14T06:15:52.267Z,0.38
2023-10-14T06:17:32.046Z,0.5
2023-10-14T06:19:11.812Z,0.51
2023-10-14T06:20:51.578Z,0.89
2023-10-14T06:24:11.096Z,1.66
2023-10-14T06:25:50.872Z,1.41
2023-10-14T06:27:30.650Z,1.03
2023-10-14T06:29:10.401Z,0.9
2023-10-14T06:30:50.154Z,1.16
2023-10-14T06:34:09.673Z,1.03
2023-10-14T06:35:49.434Z,1.03
2023-10-14T06:37:29.412Z,0.9
2023-10-14T06:39:09.086Z,1.03
2023-10-14T06:40:48.736Z,1.29
2023-10-14T06:42:28.605Z,1.55
2023-10-14T06:44:08.273Z,1.82
2023-10-14T06:45:48.028Z,2.08
2023-10-14T06:47:27.790Z,2.22
2023-10-14T06:49:07.546Z,1.83
2023-10-14T06:50:47.317Z,1.31
2023-10-14T06:54:06.850Z,1.04
2023-10-14T06:55:46.682Z,0.91
2023-10-14T06:57:26.528Z,1.3
2023-10-14T06:59:06.148Z,1.44
2023-10-14T07:00:45.933Z,2.09
2023-10-14T07:02:25.737Z,1.97
2023-10-14T07:04:05.430Z,1.31
2023-10-14T07:05:45.205Z,0.78
2023-10-14T07:07:24.990Z,0.52
2023-10-14T07:09:04.771Z,0.78
2023-10-14T07:10:44.564Z,1.3
2023-10-14T07:14:04.143Z,2.23
2023-10-14T07:15:43.832Z,3.31
2023-10-14T07:17:23.562Z,4.69
2023-10-14T07:19:03.315Z,2.8
2023-10-14T07:20:43.087Z,2.66
2023-10-14T07:22:22.831Z,2.53
2023-10-14T07:24:02.671Z,2.53
2023-10-14T07:25:42.360Z,2.66
2023-10-14T07:27:22.139Z,1.86
2023-10-14T07:29:02.107Z,1.19
2023-10-14T07:30:41.665Z,1.85
2023-10-14T07:32:21.465Z,2.11
2023-10-14T07:34:01.231Z,2.66
2023-10-14T07:35:40.934Z,2.53
2023-10-14T07:37:20.702Z,2.67
2023-10-14T07:39:00.474Z,2.53
2023-10-14T07:40:40.287Z,2.53
2023-10-14T07:42:20.003Z,2.53
2023-10-14T07:43:59.827Z,1.59
2023-10-14T07:45:39.530Z,1.45
2023-10-14T07:47:19.294Z,0.92
2023-10-14T07:48:59.053Z,1.17
2023-10-14T07:50:38.815Z,1.72
2023-10-14T07:52:18.590Z,1.99
2023-10-14T07:53:58.474Z,2.8
2023-10-14T07:55:38.110Z,2.8
2023-10-14T07:57:17.921Z,2.4
2023-10-14T07:58:57.633Z,2.4
2023-10-14T08:00:37.423Z,2
2023-10-14T08:03:56.980Z,3.08
2023-10-14T08:05:36.719Z,4.57
2023-10-14T08:07:16.455Z,2.69
2023-10-14T08:08:56.234Z,5.72
2023-10-14T08:10:35.987Z,30.68
2023-10-14T08:12:15.773Z,13.17
2023-10-14T08:13:55.560Z,11.99
2023-10-14T08:15:35.288Z,5.52
2023-10-14T08:17:15.036Z,0
2023-10-14T08:18:54.815Z,11.82
2023-10-14T08:20:34.603Z,11.23
2023-10-14T08:22:14.363Z,29.91
2023-10-14T08:23:54.119Z,10.41
2023-10-14T08:25:33.878Z,10.53
2023-10-14T08:27:13.644Z,9.85
2023-10-14T08:28:53.407Z,10.51
2023-10-14T08:30:33.152Z,9.74
2023-10-14T08:32:12.931Z,9.49
2023-10-14T08:33:52.698Z,8.78
2023-10-14T08:35:32.466Z,9.43
2023-10-14T08:37:12.237Z,8.43
2023-10-14T08:38:51.976Z,8.42
2023-10-14T08:40:31.768Z,7.98
2023-10-14T08:42:11.548Z,8.25
2023-10-14T08:43:51.344Z,7.9
2023-10-14T08:45:31.059Z,6.88
2023-10-14T08:47:10.836Z,7.42
2023-10-14T08:48:50.581Z,6.69
2023-10-14T08:50:30.347Z,7.44
2023-10-14T08:52:10.130Z,6.49
2023-10-14T08:53:49.984Z,7.17
2023-10-14T08:55:29.651Z,7.66
2023-10-14T08:57:09.426Z,6.61
2023-10-14T08:58:49.286Z,6.58
2023-10-14T09:00:28.937Z,6.58
2023-10-14T09:02:09.029Z,6.4
2023-10-14T09:03:48.546Z,6.44
2023-10-14T09:05:28.238Z,6.43
2023-10-14T09:07:08.005Z,5.95
2023-10-14T09:08:47.770Z,6.14
2023-10-14T09:10:27.530Z,5.94
2023-10-14T09:12:07.415Z,5.99
2023-10-14T09:13:47.108Z,5.72
2023-10-14T09:15:26.962Z,5.7
2023-10-14T09:17:06.579Z,5.61
2023-10-14T09:18:46.463Z,5.7
2023-10-14T09:20:26.177Z,5.56
2023-10-14T09:22:06.008Z,5.49
2023-10-14T09:23:45.637Z,5.5
2023-10-14T09:25:25.467Z,5.35
2023-10-14T09:27:05.162Z,5.36
2023-10-14T09:28:45.030Z,5.41
2023-10-14T09:30:24.702Z,5.27
2023-10-14T09:33:44.285Z,4.36
2023-10-14T09:35:23.984Z,5.57
2023-10-14T09:37:03.750Z,4.67
2023-10-14T09:38:43.742Z,5.22
2023-10-14T09:40:23.284Z,5.14
2023-10-14T09:42:03.093Z,5.13
2023-10-14T09:43:42.804Z,4.94
2023-10-14T09:45:22.610Z,5.23
2023-10-14T09:47:02.374Z,4.94
2023-10-14T09:48:42.107Z,4.78
2023-10-14T09:50:21.922Z,4.77
2023-10-14T09:53:41.564Z,5.07
2023-10-14T09:55:21.165Z,4.48
2023-10-14T09:57:00.954Z,4.52
2023-10-14T09:58:40.689Z,4.96
2023-10-14T10:00:20.436Z,4.67
2023-10-14T10:02:00.299Z,4.51
2023-10-14T10:03:39.967Z,5.17
2023-10-14T10:05:19.743Z,4.4
2023-10-14T10:06:59.508Z,4.36
2023-10-14T10:08:39.261Z,4.21
2023-10-14T10:10:19.023Z,0.83
2023-10-14T10:11:58.794Z,3.48
2023-10-14T10:13:38.574Z,3.35
2023-10-14T10:15:18.320Z,2.78
2023-10-14T10:16:58.102Z,3.34
2023-10-14T10:18:37.895Z,2.79
2023-10-14T10:20:17.609Z,2.91
2023-10-14T10:21:57.378Z,2.77
2023-10-14T10:23:37.237Z,3.33
2023-10-14T10:25:17.103Z,4.05
2023-10-14T10:26:56.682Z,3.06
2023-10-14T10:28:36.442Z,3.06
2023-10-14T10:30:16.215Z,2.64
2023-10-14T10:31:55.981Z,2.92
2023-10-14T10:33:35.730Z,2.91
2023-10-14T10:35:15.491Z,2.64
2023-10-14T10:36:55.259Z,2.91
2023-10-14T10:38:35.135Z,3.06
2023-10-14T10:40:14.805Z,2.51
2023-10-14T10:41:54.566Z,2.63
2023-10-14T10:43:34.356Z,2.63
2023-10-14T10:45:14.195Z,2.92
2023-10-14T10:46:53.883Z,2.78
2023-10-14T10:48:33.648Z,2.93
2023-10-14T10:50:13.383Z,2.92
2023-10-14T10:53:32.904Z,2.64
2023-10-14T10:55:12.679Z,2.63
2023-10-14T10:56:52.411Z,2.63
2023-10-14T10:58:32.240Z,2.5
2023-10-14T11:00:11.973Z,2.49
2023-10-14T11:01:51.744Z,2.63
2023-10-14T11:03:31.474Z,2.79
2023-10-14T11:05:11.353Z,2.5
2023-10-14T11:06:50.991Z,2.79
2023-10-14T11:08:30.858Z,2.79
2023-10-14T11:10:10.533Z,2.65
2023-10-14T11:13:30.070Z,2.64
2023-10-14T11:15:09.904Z,2.5
2023-10-14T11:16:49.584Z,2.5
2023-10-14T11:18:29.335Z,2.78
2023-10-14T11:20:09.114Z,2.5
2023-10-14T11:21:48.867Z,2.5
2023-10-14T11:23:28.653Z,2.79
2023-10-14T11:25:08.415Z,2.64
2023-10-14T11:26:48.181Z,2.5
2023-10-14T11:28:27.940Z,2.49
2023-10-14T11:30:07.703Z,2.49
2023-10-14T11:31:47.481Z,2.5
2023-10-14T11:33:27.229Z,2.5
2023-10-14T11:35:07.001Z,2.5
2023-10-14T11:36:46.764Z,2.5
2023-10-14T11:38:26.518Z,2.5
2023-10-14T11:40:06.276Z,2.34
2023-10-14T11:41:46.207Z,2.79
2023-10-14T11:43:25.814Z,2.21
2023-10-14T11:45:05.570Z,2.5
2023-10-14T11:46:45.345Z,2.66
2023-10-14T11:48:25.101Z,2.35
2023-10-14T11:50:04.875Z,2.64
2023-10-14T11:51:44.824Z,2.34
2023-10-14T11:53:24.395Z,2.35
2023-10-14T11:55:04.157Z,2.52
2023-10-14T11:56:43.931Z,2.21
2023-10-14T11:58:23.682Z,2.22
2023-10-14T12:00:03.487Z,2.5
2023-10-14T12:01:43.226Z,2.51
2023-10-14T12:03:22.990Z,2.22
2023-10-14T12:05:02.750Z,2.5
2023-10-14T12:06:42.540Z,2.22
2023-10-14T12:08:22.274Z,2.35
2023-10-14T12:10:02.158Z,2.35
2023-10-14T12:11:41.832Z,2.34
2023-10-14T12:13:21.562Z,2.35
2023-10-14T12:15:01.354Z,2.08
2023-10-14T12:16:41.083Z,2.38
2023-10-14T12:18:20.875Z,2.34
2023-10-14T12:20:00.610Z,2.38
2023-10-14T12:21:40.375Z,2.22
2023-10-14T12:23:20.148Z,2.07
2023-10-14T12:24:59.925Z,2.22
2023-10-14T12:26:39.671Z,2.22
2023-10-14T12:28:19.435Z,2.22
2023-10-14T12:29:59.215Z,2.07
2023-10-14T12:31:38.967Z,2.22
2023-10-14T12:33:18.733Z,2.08
2023-10-14T12:34:58.477Z,2.22
2023-10-14T12:36:38.252Z,2.08
2023-10-14T12:38:18.018Z,2.08
2023-10-14T12:39:57.867Z,1.8
2023-10-14T12:41:37.570Z,2.22
2023-10-14T12:43:17.312Z,2.07
2023-10-14T12:44:57.093Z,2.24
2023-10-14T12:46:36.867Z,2.08
2023-10-14T12:48:16.599Z,2.08
2023-10-14T12:49:56.378Z,1.8
2023-10-14T12:51:36.168Z,1.94
2023-10-14T12:53:15.897Z,2.08
2023-10-14T12:54:55.673Z,1.94
2023-10-14T12:56:35.441Z,2.08
2023-10-14T12:58:15.210Z,2.22
2023-10-14T12:59:54.951Z,1.94
2023-10-14T13:01:34.725Z,2.08
2023-10-14T13:03:14.536Z,1.94
2023-10-14T13:04:54.252Z,1.96
2023-10-14T13:06:34.115Z,2.08
2023-10-14T13:08:13.782Z,2.08
2023-10-14T13:09:53.538Z,1.95
2023-10-14T13:11:33.308Z,2.21
2023-10-14T13:13:13.095Z,1.94
2023-10-14T13:14:52.832Z,1.95
2023-10-14T13:16:32.592Z,1.95
2023-10-14T13:18:12.350Z,1.8
2023-10-14T13:19:52.127Z,1.95
2023-10-14T13:21:32.100Z,1.95
2023-10-14T13:23:11.650Z,1.94
2023-10-14T13:24:51.676Z,1.94
2023-10-14T13:26:31.174Z,1.96
2023-10-14T13:28:10.976Z,1.93
2023-10-14T13:29:50.723Z,1.81
2023-10-14T13:31:30.475Z,1.8
2023-10-14T13:33:10.249Z,1.81
2023-10-14T13:34:50.121Z,1.82
2023-10-14T13:36:29.762Z,1.81
2023-10-14T13:38:09.521Z,1.94
2023-10-14T13:39:49.298Z,1.66
2023-10-14T13:41:29.110Z,1.66
2023-10-14T13:43:08.920Z,1.94
2023-10-14T13:44:48.594Z,2.08
2023-10-14T13:46:28.361Z,1.8
2023-10-14T13:48:08.107Z,1.81
2023-10-14T13:49:47.881Z,1.82
2023-10-14T13:51:27.656Z,1.82
2023-10-14T13:53:07.513Z,1.81
2023-10-14T13:54:47.184Z,1.67
2023-10-14T13:56:26.923Z,1.82
2023-10-14T13:58:06.682Z,1.66
2023-10-14T13:59:46.462Z,1.95
2023-10-14T14:01:26.232Z,1.67
2023-10-14T14:03:05.979Z,1.67
2023-10-14T14:04:45.769Z,1.81
2023-10-14T14:06:25.525Z,1.67
2023-10-14T14:08:05.267Z,1.81
2023-10-14T14:09:45.045Z,1.66
2023-10-14T14:11:24.807Z,1.8
2023-10-14T14:13:04.592Z,1.67
2023-10-14T14:14:44.351Z,1.66
2023-10-14T14:16:24.107Z,1.68
2023-10-14T14:18:03.878Z,1.52
2023-10-14T14:19:43.674Z,1.81
2023-10-14T14:21:23.412Z,1.8
2023-10-14T14:23:03.272Z,1.67
2023-10-14T14:24:42.913Z,1.53
2023-10-14T14:26:22.760Z,1.52
2023-10-14T14:28:02.494Z,1.67
2023-10-14T14:29:42.214Z,1.53
2023-10-14T14:31:22.148Z,1.53
2023-10-14T14:33:01.876Z,1.53
2023-10-14T14:34:41.490Z,1.52
2023-10-14T14:36:21.340Z,1.67
2023-10-14T14:38:01.034Z,1.54
2023-10-14T14:39:40.993Z,1.53
2023-10-14T14:41:20.554Z,1.67
2023-10-14T14:43:00.393Z,1.52
2023-10-14T14:44:40.080Z,1.52
2023-10-14T14:46:19.839Z,1.53
2023-10-14T14:47:59.632Z,1.53
2023-10-14T14:49:39.373Z,1.53
2023-10-14T14:51:19.178Z,1.53
2023-10-14T14:52:58.900Z,1.39
2023-10-14T14:54:38.676Z,1.52
2023-10-14T14:56:18.532Z,1.67
2023-10-14T14:57:58.205Z,1.67
2023-10-14T14:59:37.955Z,1.67
2023-10-14T15:01:17.718Z,1.68
2023-10-14T15:02:57.494Z,1.53
2023-10-14T15:04:37.339Z,1.68
2023-10-14T15:06:17.016Z,1.68
2023-10-14T15:07:56.778Z,1.53
2023-10-14T15:09:36.606Z,1.39
2023-10-14T15:11:16.297Z,1.39
2023-10-14T15:12:56.046Z,1.26
2023-10-14T15:14:35.927Z,1.53
2023-10-14T15:16:15.594Z,1.54
2023-10-14T15:17:55.372Z,1.39
2023-10-14T15:19:35.290Z,1.53
2023-10-14T15:21:14.921Z,1.54
2023-10-14T15:22:54.705Z,1.54
2023-10-14T15:24:34.529Z,1.53
2023-10-14T15:26:14.194Z,1.39
2023-10-14T15:27:54.016Z,1.54
2023-10-14T15:29:33.736Z,1.39
2023-10-14T15:31:13.471Z,1.39
2023-10-14T15:32:53.238Z,1.4
2023-10-14T15:34:33.006Z,1.25
2023-10-14T15:36:12.784Z,0.54
2023-10-14T15:37:52.541Z,0.4
2023-10-14T15:39:32.295Z,0.26
2023-10-14T15:41:12.080Z,0.26
2023-10-14T15:42:51.814Z,0.4
2023-10-14T15:44:31.584Z,0.4
2023-10-14T15:46:11.365Z,0.26
2023-10-14T15:47:51.101Z,0.39
2023-10-14T15:49:30.881Z,0.39
2023-10-14T15:51:10.646Z,0.39
2023-10-14T15:52:50.397Z,0.39
2023-10-14T15:54:30.158Z,0
2023-10-14T15:56:09.934Z,0
2023-10-14T15:57:49.699Z,0
2023-10-14T15:59:29.516Z,0
2023-10-14T16:01:09.220Z,0
2023-10-14T16:02:48.996Z,0
2023-10-14T16:04:28.756Z,0
2023-10-14T16:06:08.504Z,0
2023-10-14T16:07:48.277Z,0
2023-10-14T16:09:28.060Z,0
2023-10-14T16:11:07.822Z,0
2023-10-14T16:12:47.579Z,0
2023-10-14T16:14:27.438Z,0
2023-10-14T16:16:07.107Z,0
2023-10-14T16:17:46.862Z,0
2023-10-14T16:19:26.637Z,0
2023-10-14T16:21:06.480Z,0
2023-10-14T16:22:46.172Z,0
2023-10-14T16:24:25.969Z,0
2023-10-14T16:26:05.688Z,0
2023-10-14T16:27:45.444Z,0
2023-10-14T16:29:25.207Z,0
2023-10-14T16:31:04.972Z,0
2023-10-14T16:32:44.742Z,0
2023-10-14T16:34:24.500Z,0
2023-10-14T16:36:04.271Z,0
2023-10-14T16:37:44.037Z,0
2023-10-14T16:39:23.795Z,0
2023-10-14T16:41:03.571Z,0
2023-10-14T16:42:43.326Z,0
2023-10-14T16:44:23.080Z,0
2023-10-14T16:46:02.844Z,0
2023-10-14T16:47:42.618Z,0
2023-10-14T16:49:22.397Z,0
2023-10-14T16:51:02.252Z,0
2023-10-14T16:52:41.907Z,0
2023-10-14T16:54:21.669Z,0
2023-10-14T16:56:01.437Z,0
2023-10-14T16:57:41.198Z,0
2023-10-14T16:59:20.952Z,0
2023-10-14T17:01:00.743Z,0
2023-10-14T17:02:40.486Z,0
2023-10-14T17:04:20.256Z,0
2023-10-14T17:06:00.019Z,0
2023-10-14T17:07:39.797Z,0
2023-10-14T17:09:19.546Z,0
2023-10-14T17:10:59.316Z,0
2023-10-14T17:12:39.128Z,0
2023-10-14T17:14:18.906Z,0
2023-10-14T17:15:58.592Z,0
2023-10-14T17:17:38.519Z,0
2023-10-14T17:19:18.121Z,0
2023-10-14T17:20:57.911Z,0
2023-10-14T17:22:37.675Z,0
2023-10-14T17:24:17.421Z,0
2023-10-14T17:25:57.178Z,0
2023-10-14T17:27:36.954Z,0
2023-10-14T17:29:16.715Z,0
2023-10-14T17:30:56.499Z,0
2023-10-14T17:32:36.236Z,0
2023-10-14T17:34:16.022Z,0
2023-10-14T17:35:55.762Z,0
2023-10-14T17:37:35.532Z,0
2023-10-14T17:39:15.345Z,0
2023-10-14T17:40:55.087Z,0
2023-10-14T17:42:34.816Z,0
2023-10-14T17:44:14.639Z,0
2023-10-14T17:45:54.420Z,0
2023-10-14T17:47:34.127Z,0
2023-10-14T17:49:13.909Z,0
2023-10-14T17:50:53.651Z,0
2023-10-14T17:52:33.410Z,0
2023-10-14T17:54:13.186Z,0
2023-10-14T17:55:52.942Z,0
2023-10-14T17:57:32.700Z,0
2023-10-14T17:59:12.524Z,0
2023-10-14T18:00:52.244Z,0
2023-10-14T18:02:31.989Z,0
2023-10-14T18:04:11.767Z,0
2023-10-14T18:05:51.581Z,0
2023-10-14T18:07:31.277Z,0
2023-10-14T18:09:11.041Z,0
2023-10-14T18:10:50.822Z,0
2023-10-14T18:12:30.582Z,0
2023-10-14T18:14:10.346Z,0
2023-10-14T18:15:50.213Z,0
2023-10-14T18:17:29.867Z,0
2023-10-14T18:19:09.667Z,0
2023-10-14T18:20:49.421Z,0
2023-10-14T18:22:29.164Z,0
2023-10-14T18:24:08.920Z,0
2023-10-14T18:25:48.674Z,0
2023-10-14T18:27:28.453Z,0
2023-10-14T18:29:08.220Z,0
2023-10-14T18:30:48.332Z,0
2023-10-14T18:32:27.916Z,0
2023-10-14T18:34:07.584Z,0
2023-10-14T18:35:47.411Z,0
2023-10-14T18:37:27.027Z,0
2023-10-14T18:39:07.029Z,0
2023-10-14T18:40:46.729Z,0
2023-10-14T18:42:26.397Z,0
2023-10-14T18:44:06.356Z,0
2023-10-14T18:45:45.909Z,0
2023-10-14T18:47:25.610Z,0
2023-10-14T18:49:05.532Z,0
2023-10-14T18:50:45.169Z,0
2023-10-14T18:52:24.901Z,0
2023-10-14T18:54:04.799Z,0
2023-10-14T18:55:44.498Z,0
2023-10-14T18:57:24.210Z,0
2023-10-14T18:59:04.157Z,0
2023-10-14T19:00:43.776Z,0
2023-10-14T19:02:23.488Z,0
2023-10-14T19:04:03.252Z,0
2023-10-14T19:05:43.160Z,0
2023-10-14T19:07:22.852Z,0
2023-10-14T19:09:02.559Z,0
2023-10-14T19:10:42.311Z,0
2023-10-14T19:12:22.105Z,0
2023-10-14T19:14:01.916Z,0
2023-10-14T19:15:41.701Z,0
2023-10-14T19:17:21.373Z,0
2023-10-14T19:19:01.209Z,0
2023-10-14T19:20:40.915Z,0
2023-10-14T19:22:20.662Z,0
2023-10-14T19:24:00.472Z,0
2023-10-14T19:25:40.183Z,0
2023-10-14T19:27:19.966Z,0
2023-10-14T19:28:59.733Z,0
2023-10-14T19:30:39.474Z,0
2023-10-14T19:32:19.253Z,0
2023-10-14T19:33:59.041Z,0
2023-10-14T19:35:38.777Z,0
2023-10-14T19:37:18.528Z,0
2023-10-14T19:38:58.313Z,0
2023-10-14T19:40:38.069Z,0
2023-10-14T19:42:17.845Z,0
2023-10-14T19:43:57.615Z,0
2023-10-14T19:45:37.478Z,0
2023-10-14T19:47:17.148Z,0
2023-10-14T19:48:56.902Z,0
2023-10-14T19:50:36.689Z,0
2023-10-14T19:52:16.434Z,0
2023-10-14T19:53:56.197Z,0
2023-10-14T19:55:35.981Z,0
2023-10-14T19:57:15.758Z,0
2023-10-14T19:58:55.512Z,0
2023-10-14T20:00:35.261Z,0
2023-10-14T20:02:15.036Z,0
2023-10-14T20:03:54.793Z,0
2023-10-14T20:05:34.540Z,0
2023-10-14T20:07:14.311Z,0
2023-10-14T20:08:54.078Z,0
2023-10-14T20:10:33.842Z,0
2023-10-14T20:12:13.624Z,0
2023-10-14T20:13:53.449Z,0
2023-10-14T20:15:33.120Z,0
2023-10-14T20:17:12.872Z,0
2023-10-14T20:18:52.641Z,0
2023-10-14T20:20:32.408Z,0
2023-10-14T20:22:12.154Z,0
2023-10-14T20:23:51.941Z,0
2023-10-14T20:25:31.696Z,0
2023-10-14T20:27:11.445Z,0
2023-10-14T20:28:51.208Z,0
2023-10-14T20:30:30.976Z,0
2023-10-14T20:32:10.736Z,0
2023-10-14T20:33:50.561Z,0
2023-10-14T20:35:30.410Z,0
2023-10-14T20:37:10.106Z,0
2023-10-14T20:38:49.851Z,0
2023-10-14T20:40:29.613Z,0
2023-10-14T20:42:09.315Z,0
2023-10-14T20:43:49.126Z,0
2023-10-14T20:45:28.838Z,0
2023-10-14T20:47:08.699Z,0
2023-10-14T20:48:48.466Z,0
2023-10-14T20:50:28.157Z,0
2023-10-14T20:52:07.902Z,0
2023-10-14T20:53:47.662Z,0
2023-10-14T20:55:27.434Z,0
2023-10-14T20:57:07.185Z,0
2023-10-14T20:58:46.949Z,0
2023-10-14T21:00:26.739Z,0
2023-10-14T21:02:06.483Z,0
2023-10-14T21:03:46.356Z,0
2023-10-14T21:05:26.011Z,0
2023-10-14T21:07:05.779Z,0
2023-10-14T21:08:45.536Z,0
2023-10-14T21:10:25.329Z,0
2023-10-14T21:12:05.071Z,0
2023-10-14T21:13:44.839Z,0
2023-10-14T21:15:24.603Z,0
2023-10-14T21:17:04.365Z,0
2023-10-14T21:18:44.135Z,0
2023-10-14T21:20:23.911Z,0
2023-10-14T21:22:03.649Z,0
2023-10-14T21:23:43.421Z,0
2023-10-14T21:25:23.177Z,0
2023-10-14T21:27:03.024Z,0
2023-10-14T21:28:42.707Z,0
2023-10-14T21:30:22.594Z,0
2023-10-14T21:32:02.237Z,0
2023-10-14T21:33:42.016Z,0
2023-10-14T21:35:21.777Z,0
2023-10-14T21:37:01.527Z,0
2023-10-14T21:38:41.301Z,0
2023-10-14T21:40:21.056Z,0
2023-10-14T21:42:00.830Z,0
2023-10-14T21:43:40.680Z,0
2023-10-14T21:45:20.368Z,0
2023-10-14T21:47:00.126Z,0
2023-10-14T21:48:39.982Z,0
2023-10-14T21:50:19.646Z,0
2023-10-14T21:51:59.402Z,0
2023-10-14T21:53:39.198Z,0
2023-10-14T21:55:18.948Z,0
2023-10-14T21:56:58.716Z,0
2023-10-14T21:58:38.465Z,0
2023-10-14T22:00:18.233Z,0
2023-10-14T22:01:58.001Z,0
2023-10-14T22:03:37.779Z,0
2023-10-14T22:05:17.524Z,0
2023-10-14T22:06:57.290Z,0
2023-10-14T22:08:37.059Z,0
2023-10-14T22:10:16.830Z,0
2023-10-14T22:11:56.622Z,0
2023-10-14T22:13:36.361Z,0
2023-10-14T22:15:16.120Z,0
2023-10-14T22:16:55.888Z,0
2023-10-14T22:18:35.642Z,0
2023-10-14T22:20:15.408Z,0
2023-10-14T22:21:55.168Z,0
2023-10-14T22:23:34.942Z,0
2023-10-14T22:25:14.903Z,0
2023-10-14T22:26:54.467Z,0
2023-10-14T22:28:34.223Z,0
2023-10-14T22:30:14.014Z,0
2023-10-14T22:31:53.761Z,0
2023-10-14T22:33:33.524Z,0
2023-10-14T22:35:13.290Z,0
2023-10-14T22:36:53.061Z,0
2023-10-14T22:38:32.827Z,0
2023-10-14T22:40:12.733Z,0
2023-10-14T22:41:52.347Z,0
2023-10-14T22:43:32.108Z,0
2023-10-14T22:45:11.881Z,0
2023-10-14T22:46:51.670Z,0
2023-10-14T22:48:31.400Z,0
2023-10-14T22:50:11.169Z,0
2023-10-14T22:51:50.936Z,0
2023-10-14T22:53:30.692Z,0
2023-10-14T22:55:10.457Z,0
2023-10-14T22:56:50.225Z,0
2023-10-14T22:58:29.978Z,0
2023-10-14T23:00:09.741Z,0
2023-10-14T23:01:49.505Z,0
2023-10-14T23:03:29.261Z,0
2023-10-14T23:05:09.038Z,0
2023-10-14T23:06:48.869Z,0
2023-10-14T23:08:28.547Z,0
2023-10-14T23:10:08.346Z,0
2023-10-14T23:11:48.129Z,0
2023-10-14T23:13:27.845Z,0
2023-10-14T23:15:07.684Z,0
2023-10-14T23:16:47.370Z,0
2023-10-14T23:18:27.132Z,0
2023-10-14T23:20:06.905Z,0
2023-10-14T23:21:46.655Z,0
2023-10-14T23:23:26.423Z,0
2023-10-14T23:25:06.168Z,0
2023-10-14T23:26:45.943Z,0
2023-10-14T23:28:25.710Z,0
2023-10-14T23:30:05.465Z,0
2023-10-14T23:31:45.231Z,0
2023-10-14T23:33:24.994Z,0
2023-10-14T23:35:04.762Z,0
2023-10-14T23:36:44.669Z,0
2023-10-14T23:38:24.291Z,0
2023-10-14T23:40:04.067Z,0
2023-10-14T23:41:43.827Z,0
2023-10-14T23:43:23.583Z,0
2023-10-14T23:45:03.367Z,0
2023-10-14T23:46:43.115Z,0
2023-10-14T23:48:22.885Z,0
2023-10-14T23:50:02.646Z,0
2023-10-14T23:51:42.397Z,0
2023-10-14T23:53:22.174Z,0
2023-10-14T23:55:01.924Z,0
2023-10-14T23:56:41.691Z,0